createdAt,value
2023-07-19T00:00:30.174Z,101014.54
2023-07-19T00:03:18.105Z,101011.89
2023-07-19T00:05:46.190Z,101008.57
2023-07-19T00:08:15.661Z,101010.86
2023-07-19T00:10:43.764Z,101008.79
2023-07-19T00:13:11.804Z,101003.33
2023-07-19T00:15:39.760Z,101002.11
2023-07-19T00:18:07.819Z,101000.77
2023-07-19T00:20:35.834Z,101000.23
2023-07-19T00:23:03.952Z,100997.61
2023-07-19T00:25:32.856Z,100993.95
2023-07-19T00:28:00.796Z,100993.79
2023-07-19T00:30:29.461Z,100993.98
2023-07-19T00:32:57.761Z,100994.13
2023-07-19T00:35:27.363Z,100988.89
2023-07-19T00:37:55.546Z,100983.11
2023-07-19T00:40:23.683Z,100981.84
2023-07-19T00:42:58.680Z,100981.43
2023-07-19T00:45:27.958Z,100974.23
2023-07-19T00:47:57.985Z,100971.89
2023-07-19T00:50:26.040Z,100971.68
2023-07-19T00:52:54.171Z,100972.14
2023-07-19T00:55:22.214Z,100968.04
2023-07-19T00:57:50.313Z,100962.52
2023-07-19T01:00:19.602Z,100958.89
2023-07-19T01:02:47.818Z,100957.80
2023-07-19T01:05:17.552Z,100956.07
2023-07-19T01:07:45.876Z,100950.95
2023-07-19T01:10:14.496Z,100950.54
2023-07-19T01:12:42.531Z,100944.71
2023-07-19T01:15:11.243Z,100944.60
2023-07-19T01:17:39.392Z,100948.96
2023-07-19T01:20:09.878Z,100948.23
2023-07-19T01:22:38.005Z,100946.80
2023-07-19T01:25:06.641Z,100947.07
2023-07-19T01:27:34.558Z,100949.04
2023-07-19T01:30:02.616Z,100943.11
2023-07-19T01:32:30.697Z,100941.13
2023-07-19T01:34:58.967Z,100938.40
2023-07-19T01:37:29.398Z,100937.96
2023-07-19T01:39:57.411Z,100935.33
2023-07-19T01:42:25.458Z,100934.59
2023-07-19T01:44:55.107Z,100926.64
2023-07-19T01:47:23.291Z,100928.45
2023-07-19T01:49:51.296Z,100921.96
2023-07-19T01:52:20.024Z,100924.14
2023-07-19T01:54:48.148Z,100919.86
2023-07-19T01:57:16.398Z,100916.90
2023-07-19T01:59:44.727Z,100918.85
2023-07-19T02:02:12.990Z,100918.41
2023-07-19T02:04:42.558Z,100917.29
2023-07-19T02:07:10.720Z,100918.52
2023-07-19T02:09:38.739Z,100913.80
2023-07-19T02:12:07.367Z,100914.92
2023-07-19T02:14:35.620Z,100915.02
2023-07-19T02:17:04.575Z,100909.02
2023-07-19T02:19:34.823Z,100906.98
2023-07-19T02:22:02.894Z,100907.59
2023-07-19T02:24:31.296Z,100906.05
2023-07-19T02:26:59.903Z,100911.91
2023-07-19T02:29:27.996Z,100909.38
2023-07-19T02:31:56.514Z,100910.23
2023-07-19T02:34:24.550Z,100909.19
2023-07-19T02:36:52.748Z,100911.16
2023-07-19T02:39:22.171Z,100908.50
2023-07-19T02:41:50.199Z,100906.73
2023-07-19T02:44:18.317Z,100905.82
2023-07-19T02:46:46.688Z,100908.96
2023-07-19T02:49:15.050Z,100908.46
2023-07-19T02:51:43.114Z,100907.16
2023-07-19T02:54:11.533Z,100902.14
2023-07-19T02:56:39.689Z,100896.24
2023-07-19T02:59:07.757Z,100895.99
2023-07-19T03:01:37.628Z,100892.06
2023-07-19T03:04:07.858Z,100888.15
2023-07-19T03:06:36.213Z,100891.77
2023-07-19T03:09:04.412Z,100894.02
2023-07-19T03:11:32.415Z,100889.54
2023-07-19T03:14:00.541Z,100889.55
2023-07-19T03:16:28.677Z,100894.08
2023-07-19T03:18:56.760Z,100888.21
2023-07-19T03:21:24.910Z,100891.90
2023-07-19T03:23:52.957Z,100894.07
2023-07-19T03:26:20.963Z,100890.80
2023-07-19T03:28:49.564Z,100887.00
2023-07-19T03:31:18.100Z,100886.71
2023-07-19T03:33:46.450Z,100889.68
2023-07-19T03:36:14.461Z,100889.88
2023-07-19T03:38:42.617Z,100884.39
2023-07-19T03:41:11.578Z,100879.36
2023-07-19T03:43:40.022Z,100880.39
2023-07-19T03:46:09.282Z,100881.85
2023-07-19T03:48:39.349Z,100884.92
2023-07-19T03:51:07.913Z,100880.33
2023-07-19T03:53:36.111Z,100877.98
2023-07-19T03:56:04.593Z,100874.52
2023-07-19T03:58:33.712Z,100868.19
2023-07-19T04:01:04.324Z,100865.86
2023-07-19T04:03:32.683Z,100863.48
2023-07-19T04:06:00.971Z,100860.48
2023-07-19T04:08:29.150Z,100865.74
2023-07-19T04:10:57.207Z,100867.92
2023-07-19T04:13:28.949Z,100875.19
2023-07-19T04:15:57.370Z,100876.73
2023-07-19T04:18:28.353Z,100878.55
2023-07-19T04:20:58.696Z,100876.38
2023-07-19T04:23:29.060Z,100878.59
2023-07-19T04:25:57.234Z,100871.44
2023-07-19T04:28:25.472Z,100867.07
2023-07-19T04:30:53.597Z,100862.09
2023-07-19T04:33:21.814Z,100857.64
2023-07-19T04:35:52.150Z,100852.23
2023-07-19T04:38:23.675Z,100843.05
2023-07-19T04:40:51.761Z,100837.70
2023-07-19T04:43:26.673Z,100832.81
2023-07-19T04:45:56.781Z,100834.91
2023-07-19T04:48:26.576Z,100834.83
2023-07-19T04:50:57.845Z,100837.75
2023-07-19T04:53:26.756Z,100836.52
2023-07-19T04:55:57.453Z,100836.72
2023-07-19T04:58:27.444Z,100838.40
2023-07-19T05:00:55.664Z,100834.27
2023-07-19T05:03:23.736Z,100835.50
2023-07-19T05:05:51.712Z,100832.74
2023-07-19T05:08:20.268Z,100833.88
2023-07-19T05:10:48.268Z,100832.39
2023-07-19T05:13:16.431Z,100837.38
2023-07-19T05:15:44.546Z,100835.47
2023-07-19T05:18:15.337Z,100840.58
2023-07-19T05:20:43.545Z,100840.11
2023-07-19T05:23:13.398Z,100839.09
2023-07-19T05:25:41.613Z,100837.33
2023-07-19T05:28:09.630Z,100835.66
2023-07-19T05:30:37.660Z,100830.64
2023-07-19T05:33:05.709Z,100824.96
2023-07-19T05:35:35.058Z,100823.14
2023-07-19T05:38:04.577Z,100820.08
2023-07-19T05:40:32.770Z,100824.34
2023-07-19T05:43:00.832Z,100824.16
2023-07-19T05:45:28.944Z,100815.86
2023-07-19T05:47:57.027Z,100820.26
2023-07-19T05:50:25.091Z,100820.82
2023-07-19T05:52:53.185Z,100822.19
2023-07-19T05:55:21.201Z,100822.27
2023-07-19T05:57:49.346Z,100821.24
2023-07-19T06:00:25.987Z,100822.92
2023-07-19T06:02:55.879Z,100817.45
2023-07-19T06:05:26.134Z,100818.70
2023-07-19T06:07:54.502Z,100813.44
2023-07-19T06:10:22.714Z,100814.42
2023-07-19T06:12:51.442Z,100814.80
2023-07-19T06:15:19.544Z,100815.52
2023-07-19T06:17:48.018Z,100816.13
2023-07-19T06:20:16.078Z,100816.23
2023-07-19T06:22:45.115Z,100815.46
2023-07-19T06:25:13.407Z,100817.88
2023-07-19T06:27:41.638Z,100816.38
2023-07-19T06:30:11.356Z,100815.52
2023-07-19T06:32:39.759Z,100815.20
2023-07-19T06:35:10.505Z,100816.80
2023-07-19T06:37:40.287Z,100819.17
2023-07-19T06:40:09.340Z,100821.79
2023-07-19T06:42:37.638Z,100817.98
2023-07-19T06:45:06.431Z,100814.23
2023-07-19T06:47:34.500Z,100815.02
2023-07-19T06:50:03.022Z,100812.54
2023-07-19T06:52:31.013Z,100810.96
2023-07-19T06:54:58.967Z,100813.63
2023-07-19T06:57:26.971Z,100809.52
2023-07-19T06:59:55.017Z,100804.11
2023-07-19T07:02:23.009Z,100804.49
2023-07-19T07:04:51.687Z,100805.59
2023-07-19T07:07:20.781Z,100800.46
2023-07-19T07:09:48.951Z,100797.88
2023-07-19T07:12:17.101Z,100796.20
2023-07-19T07:14:45.179Z,100792.05
2023-07-19T07:17:13.309Z,100793.65
2023-07-19T07:19:41.415Z,100790.70
2023-07-19T07:22:09.406Z,100787.34
2023-07-19T07:24:37.390Z,100785.41
2023-07-19T07:27:06.366Z,100787.59
2023-07-19T07:29:34.331Z,100788.09
2023-07-19T07:32:02.383Z,100782.05
2023-07-19T07:34:30.489Z,100780.67
2023-07-19T07:36:58.567Z,100779.10
2023-07-19T07:39:26.587Z,100771.67
2023-07-19T07:41:54.646Z,100769.42
2023-07-19T07:44:22.776Z,100768.63
2023-07-19T07:46:51.345Z,100769.77
2023-07-19T07:49:19.390Z,100765.94
2023-07-19T07:51:47.458Z,100762.58
2023-07-19T07:54:15.581Z,100764.80
2023-07-19T07:56:43.579Z,100762.91
2023-07-19T07:59:11.627Z,100760.40
2023-07-19T08:01:39.652Z,100757.77
2023-07-19T08:04:10.338Z,100756.09
2023-07-19T08:06:39.923Z,100752.13
2023-07-19T08:09:07.940Z,100748.99
2023-07-19T08:11:36.045Z,100746.33
2023-07-19T08:14:04.095Z,100749.21
2023-07-19T08:16:32.095Z,100749.59
2023-07-19T08:19:00.196Z,100748.18
2023-07-19T08:21:36.026Z,100749.48
2023-07-19T08:24:05.604Z,100749.17
2023-07-19T08:26:33.572Z,100750.70
2023-07-19T08:29:01.583Z,100746.42
2023-07-19T08:31:29.759Z,100741.06
2023-07-19T08:33:57.999Z,100737.05
2023-07-19T08:36:26.154Z,100736.73
2023-07-19T08:38:54.351Z,100728.55
2023-07-19T08:41:24.559Z,100717.90
2023-07-19T08:43:56.823Z,100719.67
2023-07-19T08:46:25.876Z,100719.10
2023-07-19T08:48:54.068Z,100712.67
2023-07-19T08:51:22.922Z,100710.73
2023-07-19T08:53:51.129Z,100707.14
2023-07-19T08:56:21.615Z,100708.91
2023-07-19T08:58:49.678Z,100702.82
2023-07-19T09:01:17.806Z,100702.03
2023-07-19T09:03:46.125Z,100709.09
2023-07-19T09:06:24.008Z,100700.75
2023-07-19T09:08:53.319Z,100698.10
2023-07-19T09:11:24.537Z,100699.95
2023-07-19T09:13:57.621Z,100702.52
2023-07-19T09:16:31.208Z,100702.77
2023-07-19T09:19:00.904Z,100707.03
2023-07-19T09:21:43.647Z,100700.55
2023-07-19T09:24:13.204Z,100697.94
2023-07-19T09:26:58.837Z,100683.30
2023-07-19T09:29:32.154Z,100674.70
2023-07-19T09:32:03.468Z,100671.39
2023-07-19T09:34:39.444Z,100671.55
2023-07-19T09:37:07.581Z,100668.52
2023-07-19T09:39:36.436Z,100665.89
2023-07-19T09:42:05.765Z,100661.33
2023-07-19T09:44:35.064Z,100658.23
2023-07-19T09:47:14.427Z,100660.28
2023-07-19T09:49:47.047Z,100659.85
2023-07-19T09:52:18.911Z,100657.35
2023-07-19T09:54:47.140Z,100654.59
2023-07-19T09:57:18.393Z,100652.02
2023-07-19T09:59:51.217Z,100642.36
2023-07-19T10:02:22.688Z,100639.02
2023-07-19T10:04:52.456Z,100635.23
2023-07-19T10:07:22.456Z,100628.09
2023-07-19T10:09:53.679Z,100624.11
2023-07-19T10:12:26.485Z,100628.27
2023-07-19T10:15:01.457Z,100618.48
2023-07-19T10:17:33.363Z,100619.73
2023-07-19T10:20:14.263Z,100621.55
2023-07-19T10:22:58.940Z,100616.84
2023-07-19T10:25:29.201Z,100613.39
2023-07-19T10:27:58.250Z,100613.56
2023-07-19T10:30:45.586Z,100611.89
2023-07-19T10:33:25.682Z,100608.30
2023-07-19T10:35:56.818Z,100611.17
2023-07-19T10:38:27.522Z,100603.82
2023-07-19T10:41:04.273Z,100603.92
2023-07-19T10:46:08.273Z,100605.66
2023-07-19T10:48:41.578Z,100601.00
2023-07-19T10:51:12.803Z,100598.06
2023-07-19T10:53:41.844Z,100595.20
2023-07-19T10:56:10.084Z,100599.78
2023-07-19T10:58:38.527Z,100599.61
2023-07-19T11:01:07.500Z,100603.80
2023-07-19T11:03:35.819Z,100605.63
2023-07-19T11:06:08.537Z,100608.77
2023-07-19T11:08:36.673Z,100611.96
2023-07-19T11:11:05.198Z,100614.94
2023-07-19T11:13:33.911Z,100616.77
2023-07-19T11:16:02.455Z,100613.63
2023-07-19T11:18:36.416Z,100612.90
2023-07-19T11:21:05.297Z,100611.70
2023-07-19T11:23:39.617Z,100609.92
2023-07-19T11:26:13.063Z,100608.32
2023-07-19T11:28:54.030Z,100604.94
2023-07-19T11:31:42.223Z,100607.23
2023-07-19T11:34:17.801Z,100607.34
2023-07-19T11:36:47.896Z,100606.69
2023-07-19T11:39:22.580Z,100610.36
2023-07-19T11:41:50.899Z,100605.75
2023-07-19T11:44:21.775Z,100608.31
2023-07-19T11:46:50.622Z,100605.06
2023-07-19T11:49:19.663Z,100600.36
2023-07-19T11:51:48.328Z,100600.58
2023-07-19T11:54:16.574Z,100598.58
2023-07-19T11:56:44.862Z,100599.48
2023-07-19T11:59:12.868Z,100593.50
2023-07-19T12:01:41.569Z,100589.48
2023-07-19T12:04:10.260Z,100587.35
2023-07-19T12:06:38.586Z,100587.84
2023-07-19T12:09:06.622Z,100594.98
2023-07-19T12:11:34.675Z,100597.98
2023-07-19T12:14:03.545Z,100603.33
2023-07-19T12:16:31.716Z,100598.16
2023-07-19T12:18:59.851Z,100594.57
2023-07-19T12:21:28.238Z,100591.19
2023-07-19T12:23:59.566Z,100595.23
2023-07-19T12:28:59.301Z,100594.65
2023-07-19T12:31:27.586Z,100597.80
2023-07-19T12:33:58.195Z,100594.23
2023-07-19T12:36:26.405Z,100592.67
2023-07-19T12:38:56.312Z,100590.45
2023-07-19T12:41:24.350Z,100589.15
2023-07-19T12:43:52.449Z,100587.55
2023-07-19T12:46:21.218Z,100580.59
2023-07-19T12:48:52.635Z,100587.26
2023-07-19T12:51:21.293Z,100586.92
2023-07-19T12:53:50.585Z,100582.98
2023-07-19T12:56:19.690Z,100590.57
2023-07-19T12:58:48.320Z,100598.55
2023-07-19T13:01:16.884Z,100601.23
2023-07-19T13:03:45.328Z,100606.38
2023-07-19T13:06:13.505Z,100602.23
2023-07-19T13:08:41.916Z,100602.33
2023-07-19T13:11:10.282Z,100604.11
2023-07-19T13:13:38.326Z,100598.05
2023-07-19T13:16:06.381Z,100591.27
2023-07-19T13:18:34.536Z,100593.41
2023-07-19T13:21:02.624Z,100593.97
2023-07-19T13:23:30.650Z,100593.73
2023-07-19T13:25:58.767Z,100593.83
2023-07-19T13:28:26.977Z,100594.64
2023-07-19T13:30:59.324Z,100596.84
2023-07-19T13:33:29.089Z,100597.65
2023-07-19T13:36:00.045Z,100600.73
2023-07-19T13:38:29.002Z,100595.20
2023-07-19T13:40:57.075Z,100590.86
2023-07-19T13:43:25.370Z,100589.96
2023-07-19T13:45:53.628Z,100590.64
2023-07-19T13:48:21.710Z,100587.08
2023-07-19T13:50:49.698Z,100583.80
2023-07-19T13:53:17.637Z,100581.34
2023-07-19T13:55:45.637Z,100578.18
2023-07-19T13:58:15.109Z,100573.42
2023-07-19T14:00:43.386Z,100574.11
2023-07-19T14:03:13.185Z,100574.63
2023-07-19T14:05:41.386Z,100575.84
2023-07-19T14:08:10.119Z,100575.77
2023-07-19T14:10:38.512Z,100565.66
2023-07-19T14:13:08.521Z,100561.77
2023-07-19T14:15:37.451Z,100560.61
2023-07-19T14:18:16.586Z,100553.12
2023-07-19T14:20:46.313Z,100562.14
2023-07-19T14:23:14.599Z,100560.64
2023-07-19T14:25:42.807Z,100560.39
2023-07-19T14:28:11.467Z,100555.71
2023-07-19T14:30:40.808Z,100557.21
2023-07-19T14:33:09.497Z,100548.02
2023-07-19T14:35:37.695Z,100545.46
2023-07-19T14:38:05.780Z,100543.52
2023-07-19T14:40:38.397Z,100545.70
2023-07-19T14:43:06.523Z,100538.41
2023-07-19T14:45:36.142Z,100543.38
2023-07-19T14:48:04.725Z,100537.84
2023-07-19T14:50:32.888Z,100540.07
2023-07-19T14:53:08.179Z,100540.67
2023-07-19T14:55:36.415Z,100544.20
2023-07-19T14:58:04.386Z,100541.55
2023-07-19T15:03:03.397Z,100543.71
2023-07-19T15:05:31.547Z,100541.52
2023-07-19T15:07:59.551Z,100542.04
2023-07-19T15:10:27.571Z,100543.88
2023-07-19T15:12:57.138Z,100539.90
2023-07-19T15:15:25.624Z,100541.77
2023-07-19T15:17:54.549Z,100541.11
2023-07-19T15:20:23.767Z,100536.08
2023-07-19T15:22:55.290Z,100538.33
2023-07-19T15:25:24.516Z,100542.48
2023-07-19T15:27:52.862Z,100545.73
2023-07-19T15:30:21.183Z,100555.77
2023-07-19T15:32:49.263Z,100559.05
2023-07-19T15:35:17.449Z,100552.55
2023-07-19T15:37:45.754Z,100555.27
2023-07-19T15:40:14.081Z,100555.14
2023-07-19T15:42:42.081Z,100559.17
2023-07-19T15:45:12.472Z,100557.37
2023-07-19T15:47:40.810Z,100558.66
2023-07-19T15:50:09.506Z,100559.34
2023-07-19T15:52:37.962Z,100555.66
2023-07-19T15:55:06.497Z,100552.70
2023-07-19T15:57:34.559Z,100549.73
2023-07-19T16:00:02.665Z,100549.17
2023-07-19T16:02:33.629Z,100550.61
2023-07-19T16:05:01.788Z,100558.27
2023-07-19T16:07:29.927Z,100557.98
2023-07-19T16:09:58.031Z,100560.73
2023-07-19T16:12:26.189Z,100561.40
2023-07-19T16:14:54.249Z,100558.54
2023-07-19T16:17:22.287Z,100556.06
2023-07-19T16:19:50.622Z,100562.46
2023-07-19T16:22:18.656Z,100564.71
2023-07-19T16:24:46.649Z,100568.63
2023-07-19T16:27:14.692Z,100557.54
2023-07-19T16:29:42.693Z,100547.38
2023-07-19T16:32:10.833Z,100539.44
2023-07-19T16:34:38.915Z,100535.06
2023-07-19T16:37:07.458Z,100528.59
2023-07-19T16:39:35.733Z,100525.65
2023-07-19T16:42:05.337Z,100527.73
2023-07-19T16:44:33.348Z,100526.02
2023-07-19T16:47:01.480Z,100524.84
2023-07-19T16:49:29.523Z,100525.21
2023-07-19T16:51:59.087Z,100527.66
2023-07-19T16:54:27.166Z,100528.40
2023-07-19T16:56:55.212Z,100534.95
2023-07-19T16:59:23.893Z,100531.88
2023-07-19T17:01:52.026Z,100538.20
2023-07-19T17:04:20.100Z,100537.91
2023-07-19T17:06:48.371Z,100537.92
2023-07-19T17:09:16.376Z,100538.95
2023-07-19T17:11:44.451Z,100537.64
2023-07-19T17:14:12.587Z,100532.98
2023-07-19T17:16:40.530Z,100527.54
2023-07-19T17:19:15.805Z,100530.83
2023-07-19T17:21:46.242Z,100533.65
2023-07-19T17:24:14.473Z,100532.09
2023-07-19T17:26:42.676Z,100527.43
2023-07-19T17:29:10.706Z,100524.31
2023-07-19T17:31:38.729Z,100521.50
2023-07-19T17:34:06.822Z,100520.04
2023-07-19T17:36:34.919Z,100520.30
2023-07-19T17:39:02.862Z,100520.60
2023-07-19T17:41:30.926Z,100519.53
2023-07-19T17:43:59.948Z,100517.23
2023-07-19T17:46:28.057Z,100517.76
2023-07-19T17:48:56.101Z,100516.55
2023-07-19T17:51:24.258Z,100520.70
2023-07-19T17:53:52.427Z,100518.98
2023-07-19T17:56:20.499Z,100515.06
2023-07-19T17:58:51.395Z,100517.71
2023-07-19T18:01:20.941Z,100521.75
2023-07-19T18:03:49.819Z,100520.50
2023-07-19T18:06:19.362Z,100518.11
2023-07-19T18:08:47.396Z,100521.33
2023-07-19T18:11:15.552Z,100521.27
2023-07-19T18:13:43.657Z,100517.89
2023-07-19T18:16:11.652Z,100516.13
2023-07-19T18:18:39.729Z,100516.03
2023-07-19T18:21:07.717Z,100517.14
2023-07-19T18:23:38.532Z,100517.02
2023-07-19T18:26:06.698Z,100515.59
2023-07-19T18:28:36.432Z,100514.56
2023-07-19T18:31:04.809Z,100509.91
2023-07-19T18:33:33.361Z,100508.25
2023-07-19T18:36:01.380Z,100514.38
2023-07-19T18:38:29.553Z,100515.89
2023-07-19T18:40:57.929Z,100519.14
2023-07-19T18:43:26.066Z,100522.73
2023-07-19T18:45:55.764Z,100521.44
2023-07-19T18:48:24.228Z,100520.73
2023-07-19T18:50:52.252Z,100525.16
2023-07-19T18:53:26.202Z,100522.37
2023-07-19T18:55:54.273Z,100522.88
2023-07-19T18:58:22.334Z,100523.12
2023-07-19T19:00:50.428Z,100521.58
2023-07-19T19:03:18.579Z,100522.45
2023-07-19T19:05:47.717Z,100528.33
2023-07-19T19:08:17.175Z,100530.36
2023-07-19T19:10:45.597Z,100528.25
2023-07-19T19:13:13.635Z,100528.13
2023-07-19T19:15:41.977Z,100531.30
2023-07-19T19:18:10.523Z,100535.96
2023-07-19T19:20:38.638Z,100540.31
2023-07-19T19:23:08.785Z,100543.73
2023-07-19T19:25:36.866Z,100548.79
2023-07-19T19:30:50.484Z,100544.23
2023-07-19T19:33:18.817Z,100544.56
2023-07-19T19:35:46.873Z,100542.98
2023-07-19T19:38:15.322Z,100544.56
2023-07-19T19:40:43.594Z,100545.96
2023-07-19T19:43:11.570Z,100554.97
2023-07-19T19:45:39.567Z,100555.35
2023-07-19T19:48:07.769Z,100555.02
2023-07-19T19:50:35.787Z,100555.83
2023-07-19T19:53:10.473Z,100552.36
2023-07-19T19:58:12.226Z,100555.77
2023-07-19T20:00:41.766Z,100552.89
2023-07-19T20:08:12.782Z,100548.55
2023-07-19T20:10:59.185Z,100545.73
2023-07-19T20:13:28.075Z,100539.56
2023-07-19T20:16:00.878Z,100538.48
2023-07-19T20:21:01.121Z,100547.20
2023-07-19T20:23:29.511Z,100546.07
2023-07-19T20:26:11.886Z,100547.52
2023-07-19T20:28:41.574Z,100549.10
2023-07-19T20:31:09.547Z,100551.54
2023-07-19T20:33:41.833Z,100552.41
2023-07-19T20:36:45.643Z,100549.05
2023-07-19T20:38:59.702Z,100545.58
2023-07-19T20:43:58.975Z,100542.77
2023-07-19T20:46:26.956Z,100543.14
2023-07-19T20:49:04.379Z,100541.77
2023-07-19T20:51:34.334Z,100550.88
2023-07-19T20:54:06.553Z,100547.58
2023-07-19T20:56:37.173Z,100549.05
2023-07-19T20:59:08.569Z,100548.42
2023-07-19T21:01:40.054Z,100548.87
2023-07-19T21:04:08.704Z,100545.17
2023-07-19T21:06:39.869Z,100545.66
2023-07-19T21:09:07.932Z,100546.39
2023-07-19T21:11:36.536Z,100542.25
2023-07-19T21:14:04.744Z,100549.28
2023-07-19T21:16:33.398Z,100551.67
2023-07-19T21:19:01.517Z,100553.13
2023-07-19T21:21:29.746Z,100554.63
2023-07-19T21:23:57.777Z,100550.55
2023-07-19T21:26:26.155Z,100553.05
2023-07-19T21:28:54.160Z,100555.26
2023-07-19T21:31:27.399Z,100555.30
2023-07-19T21:33:58.119Z,100553.68
2023-07-19T21:36:26.323Z,100554.26
2023-07-19T21:38:54.264Z,100550.95
2023-07-19T21:41:22.446Z,100552.79
2023-07-19T21:43:50.758Z,100555.77
2023-07-19T21:46:18.979Z,100562.42
2023-07-19T21:48:47.151Z,100560.09
2023-07-19T21:51:15.290Z,100563.81
2023-07-19T21:53:43.208Z,100558.44
2023-07-19T21:56:11.110Z,100559.83
2023-07-19T21:58:39.151Z,100559.15
2023-07-19T22:01:07.200Z,100560.55
2023-07-19T22:03:35.260Z,100559.98
2023-07-19T22:06:03.822Z,100560.17
2023-07-19T22:08:31.935Z,100558.19
2023-07-19T22:10:59.996Z,100556.63
2023-07-19T22:13:28.122Z,100552.48
2023-07-19T22:15:56.031Z,100553.25
2023-07-19T22:18:27.584Z,100551.79
2023-07-19T22:21:07.210Z,100549.58
2023-07-19T22:23:44.034Z,100551.81
2023-07-19T22:26:12.032Z,100548.29
2023-07-19T22:28:40.137Z,100548.81
2023-07-19T22:31:08.173Z,100543.14
2023-07-19T22:33:36.214Z,100544.11
2023-07-19T22:36:04.740Z,100541.85
2023-07-19T22:38:33.157Z,100541.09
2023-07-19T22:41:01.132Z,100542.53
2023-07-19T22:43:29.822Z,100536.85
2023-07-19T22:45:57.853Z,100538.07
2023-07-19T22:48:25.904Z,100535.93
2023-07-19T22:50:54.009Z,100534.11
2023-07-19T22:53:22.362Z,100530.92
2023-07-19T22:55:50.493Z,100526.90
2023-07-19T22:58:18.457Z,100527.55
2023-07-19T23:00:48.183Z,100525.80
2023-07-19T23:03:16.257Z,100525.84
2023-07-19T23:05:44.212Z,100524.95
2023-07-19T23:08:12.159Z,100519.83
2023-07-19T23:10:40.144Z,100526.23
2023-07-19T23:13:08.220Z,100527.35
2023-07-19T23:15:36.198Z,100529.44
2023-07-19T23:18:04.213Z,100524.04
2023-07-19T23:20:32.308Z,100523.58
2023-07-19T23:23:01.329Z,100530.13
2023-07-19T23:25:29.426Z,100537.09
2023-07-19T23:28:01.173Z,100541.98
2023-07-19T23:30:29.520Z,100549.56
2023-07-19T23:32:58.974Z,100543.89
2023-07-19T23:35:27.110Z,100537.94
2023-07-19T23:37:56.013Z,100535.98
2023-07-19T23:40:24.415Z,100534.77
2023-07-19T23:42:52.834Z,100530.55
2023-07-19T23:45:20.923Z,100518.97
2023-07-19T23:47:49.962Z,100515.46
2023-07-19T23:50:18.308Z,100509.66
2023-07-19T23:52:46.324Z,100512.63
2023-07-19T23:55:14.485Z,100514.68
2023-07-19T23:57:42.377Z,100514.38
